Time;durP1;ratioP1;P1;durP2;ratioP2;P2;SDS_P1;SDS_P2;PMS_P1;PMS_P2;Temp;Humidity;BMP_temperature;BMP_pressure;BME280_temperature;BME280_humidity;BME280_pressure;Samples;Min_cycle;Max_cycle;Signal;HPM_P1;HPM_P2
2021/01/06 00:00:23;;;;;;;;;;;6.60;81.60;;;;;;5049334;28;20477;-78
2021/01/06 00:02:48;;;;;;;;;;;6.60;81.50;;;;;;5042020;28;19916;-78
2021/01/06 00:05:18;;;;;;;;;;;6.60;81.50;;;;;;5037657;28;20308;-78
2021/01/06 00:07:44;;;;;;;;;;;6.50;81.40;;;;;;5050715;28;20124;-85
2021/01/06 00:10:11;;;;;;;;;;;6.60;81.50;;;;;;5031022;28;20388;-78
2021/01/06 00:12:39;;;;;;;;;;;6.60;81.50;;;;;;5039676;28;19909;-78
2021/01/06 00:15:04;;;;;;;;;;;6.60;81.50;;;;;;5040203;28;20007;-80
2021/01/06 00:17:30;;;;;;;;;;;6.60;81.50;;;;;;5027503;28;20313;-80
2021/01/06 00:19:56;;;;;;;;;;;6.60;81.50;;;;;;5033407;28;19912;-78
2021/01/06 00:22:21;;;;;;;;;;;6.60;81.50;;;;;;5051351;28;20548;-80
2021/01/06 00:24:47;;;;;;;;;;;6.60;81.50;;;;;;5028567;28;19944;-79
2021/01/06 00:27:12;;;;;;;;;;;6.60;81.50;;;;;;5029837;28;19935;-78
2021/01/06 00:29:38;;;;;;;;;;;6.60;81.50;;;;;;5056665;28;19905;-78
2021/01/06 00:32:04;;;;;;;;;;;6.60;81.50;;;;;;5047251;28;20369;-78
2021/01/06 00:34:29;;;;;;;;;;;6.60;81.50;;;;;;5046558;28;19916;-78
2021/01/06 00:36:55;;;;;;;;;;;6.60;81.50;;;;;;5035334;28;19913;-77
2021/01/06 00:39:21;;;;;;;;;;;6.60;81.50;;;;;;5021201;28;19912;-77
2021/01/06 00:41:47;;;;;;;;;;;6.60;81.60;;;;;;5048098;28;20343;-77
2021/01/06 00:44:12;;;;;;;;;;;6.60;81.50;;;;;;5005608;28;19964;-78
2021/01/06 00:46:38;;;;;;;;;;;6.60;81.50;;;;;;5034472;28;20038;-79
2021/01/06 00:49:05;;;;;;;;;;;6.60;81.50;;;;;;5037626;28;19909;-78
2021/01/06 00:51:31;;;;;;;;;;;6.60;81.60;;;;;;5042523;28;19909;-78
2021/01/06 00:53:57;;;;;;;;;;;6.60;81.60;;;;;;5038306;28;19917;-78
2021/01/06 00:56:30;;;;;;;;;;;6.60;81.50;;;;;;5044521;28;19960;-77
2021/01/06 00:58:56;;;;;;;;;;;6.60;81.60;;;;;;5036487;28;19948;-80
2021/01/06 01:01:23;;;;;;;;;;;6.60;81.60;;;;;;5033696;28;20273;-77
2021/01/06 01:03:49;;;;;;;;;;;6.50;81.50;;;;;;5043735;28;19909;-77
2021/01/06 01:06:21;;;;;;;;;;;6.60;81.60;;;;;;5031051;28;19920;-78
2021/01/06 01:08:47;;;;;;;;;;;6.50;81.60;;;;;;5040970;28;19991;-77
2021/01/06 01:11:13;;;;;;;;;;;6.60;81.60;;;;;;5040275;28;20062;-78
2021/01/06 01:13:38;;;;;;;;;;;6.60;81.60;;;;;;5025708;28;19924;-77
2021/01/06 01:16:04;;;;;;;;;;;6.60;81.70;;;;;;5044556;28;20301;-78
2021/01/06 01:18:29;;;;;;;;;;;6.60;82.20;;;;;;5049990;28;19913;-79
2021/01/06 01:20:56;;;;;;;;;;;6.60;81.60;;;;;;5038717;28;19959;-81
2021/01/06 01:23:23;;;;;;;;;;;6.50;81.60;;;;;;5042829;28;19909;-81
2021/01/06 01:25:48;;;;;;;;;;;6.50;81.60;;;;;;5049898;28;19917;-78
2021/01/06 01:28:14;;;;;;;;;;;6.60;81.70;;;;;;5039455;28;20408;-84
2021/01/06 01:30:40;;;;;;;;;;;6.50;81.60;;;;;;5022818;28;19916;-77
2021/01/06 01:33:05;;;;;;;;;;;6.50;81.60;;;;;;5031113;28;19959;-78
2021/01/06 01:35:32;;;;;;;;;;;6.50;81.50;;;;;;5032926;28;19905;-78
2021/01/06 01:37:58;;;;;;;;;;;6.50;81.60;;;;;;5043422;28;19945;-80
2021/01/06 01:40:26;;;;;;;;;;;6.50;81.60;;;;;;5037299;28;20417;-78
2021/01/06 01:42:53;;;;;;;;;;;6.50;81.60;;;;;;5035250;28;19908;-78
2021/01/06 01:45:19;;;;;;;;;;;6.50;81.60;;;;;;5032488;28;19966;-82
2021/01/06 01:47:55;;;;;;;;;;;6.60;81.60;;;;;;5045755;28;19909;-79
2021/01/06 01:50:22;;;;;;;;;;;6.50;81.60;;;;;;5059297;28;19909;-78
2021/01/06 01:52:50;;;;;;;;;;;6.50;81.50;;;;;;5045099;28;19960;-78
2021/01/06 01:55:17;;;;;;;;;;;6.50;81.60;;;;;;5038147;28;19912;-79
2021/01/06 01:57:45;;;;;;;;;;;6.50;81.60;;;;;;5033103;28;19909;-78
2021/01/06 02:00:13;;;;;;;;;;;6.50;81.70;;;;;;5040900;28;20365;-79
2021/01/06 02:02:45;;;;;;;;;;;6.50;81.70;;;;;;5046877;28;19932;-80
2021/01/06 02:05:28;;;;;;;;;;;6.50;81.70;;;;;;5042995;28;19909;-78
2021/01/06 02:08:16;;;;;;;;;;;6.50;81.70;;;;;;5050141;28;19927;-78
2021/01/06 02:10:46;;;;;;;;;;;6.50;81.70;;;;;;5051161;28;19908;-83
2021/01/06 02:13:33;;;;;;;;;;;6.50;81.60;;;;;;5052603;28;19909;-79
2021/01/06 02:16:16;;;;;;;;;;;6.50;81.70;;;;;;5034204;28;19955;-78
2021/01/06 02:18:41;;;;;;;;;;;6.50;81.70;;;;;;5034265;28;19999;-77
2021/01/06 02:21:08;;;;;;;;;;;6.50;81.60;;;;;;5027177;28;20001;-77
2021/01/06 02:23:34;;;;;;;;;;;6.50;81.60;;;;;;5040102;28;20078;-79
2021/01/06 02:26:00;;;;;;;;;;;6.50;81.70;;;;;;5047185;28;19920;-82
2021/01/06 02:28:26;;;;;;;;;;;6.50;81.70;;;;;;5041883;28;20243;-79
2021/01/06 02:30:52;;;;;;;;;;;6.50;81.70;;;;;;5033573;28;19913;-77
2021/01/06 02:33:18;;;;;;;;;;;6.50;81.60;;;;;;5034234;28;19913;-79
2021/01/06 02:35:43;;;;;;;;;;;6.50;81.60;;;;;;5052009;28;19913;-79
2021/01/06 02:38:09;;;;;;;;;;;6.50;81.60;;;;;;5045153;28;20003;-78
2021/01/06 02:40:35;;;;;;;;;;;6.50;81.60;;;;;;5032259;28;19909;-79
2021/01/06 02:43:00;;;;;;;;;;;6.50;81.70;;;;;;5029630;28;20626;-79
2021/01/06 02:45:26;;;;;;;;;;;6.50;81.70;;;;;;5035513;28;20015;-82
2021/01/06 02:47:52;;;;;;;;;;;6.50;81.70;;;;;;5036729;28;19920;-81
2021/01/06 02:50:21;;;;;;;;;;;6.50;81.70;;;;;;5035078;28;19944;-78
2021/01/06 02:52:49;;;;;;;;;;;6.50;81.70;;;;;;5051595;28;19917;-79
2021/01/06 02:55:16;;;;;;;;;;;6.50;81.70;;;;;;5045455;28;19960;-78
2021/01/06 02:57:43;;;;;;;;;;;6.50;81.70;;;;;;5039325;28;19913;-82
2021/01/06 03:00:11;;;;;;;;;;;6.50;81.80;;;;;;5032120;28;19963;-79
2021/01/06 03:02:37;;;;;;;;;;;6.50;81.70;;;;;;5018746;28;19988;-78
2021/01/06 03:05:25;;;;;;;;;;;6.50;81.70;;;;;;5045308;28;19948;-78
2021/01/06 03:07:51;;;;;;;;;;;6.50;81.70;;;;;;5049171;28;19917;-77
2021/01/06 03:10:17;;;;;;;;;;;6.50;81.80;;;;;;5029233;28;19932;-78
2021/01/06 03:12:44;;;;;;;;;;;6.40;81.70;;;;;;5046237;28;19955;-77
2021/01/06 03:15:10;;;;;;;;;;;6.50;81.70;;;;;;5033223;28;19966;-77
2021/01/06 03:17:36;;;;;;;;;;;6.40;81.70;;;;;;5052622;28;19916;-78
2021/01/06 03:20:06;;;;;;;;;;;6.40;81.70;;;;;;5044228;28;19909;-77
2021/01/06 03:22:32;;;;;;;;;;;6.40;81.70;;;;;;5044466;28;19905;-78
2021/01/06 03:25:03;;;;;;;;;;;6.40;81.70;;;;;;5024795;28;19916;-78
2021/01/06 03:27:30;;;;;;;;;;;6.40;81.70;;;;;;5052563;28;19920;-78
2021/01/06 03:29:57;;;;;;;;;;;6.50;81.70;;;;;;5053691;28;19950;-85
2021/01/06 03:32:34;;;;;;;;;;;6.40;81.70;;;;;;5038461;28;19909;-84
2021/01/06 03:35:02;;;;;;;;;;;6.40;81.70;;;;;;5040061;28;19908;-78
2021/01/06 03:37:41;;;;;;;;;;;6.40;81.70;;;;;;5052175;28;19916;-78
2021/01/06 03:40:12;;;;;;;;;;;6.40;81.70;;;;;;5039869;28;19909;-78
2021/01/06 03:42:39;;;;;;;;;;;6.40;81.70;;;;;;5046745;28;19909;-79
2021/01/06 03:45:06;;;;;;;;;;;6.40;81.70;;;;;;5035192;28;19912;-78
2021/01/06 03:47:34;;;;;;;;;;;6.40;81.70;;;;;;5044290;28;20373;-78
2021/01/06 03:50:02;;;;;;;;;;;6.40;81.80;;;;;;5038248;28;19912;-79
2021/01/06 03:52:47;;;;;;;;;;;6.40;81.80;;;;;;5034460;28;19956;-78
2021/01/06 03:55:32;;;;;;;;;;;6.40;81.70;;;;;;5043061;28;19909;-77
2021/01/06 03:57:57;;;;;;;;;;;6.40;81.70;;;;;;5016743;28;19964;-78
2021/01/06 04:00:45;;;;;;;;;;;6.40;81.70;;;;;;5029208;28;20324;-77
2021/01/06 04:03:18;;;;;;;;;;;6.40;81.70;;;;;;5046412;28;19909;-77
2021/01/06 04:05:45;;;;;;;;;;;6.40;81.70;;;;;;5053228;28;19945;-82
2021/01/06 04:08:13;;;;;;;;;;;6.40;81.80;;;;;;5055005;28;19962;-82
2021/01/06 04:10:42;;;;;;;;;;;6.40;81.80;;;;;;5044882;28;19909;-81
2021/01/06 04:13:07;;;;;;;;;;;6.40;81.80;;;;;;5025831;28;20361;-78
2021/01/06 04:15:33;;;;;;;;;;;6.40;81.70;;;;;;5007524;28;19956;-78
2021/01/06 04:17:59;;;;;;;;;;;6.40;81.80;;;;;;5030121;28;19962;-78
2021/01/06 04:20:30;;;;;;;;;;;6.30;81.70;;;;;;5033069;28;19913;-79
2021/01/06 04:22:57;;;;;;;;;;;6.30;81.70;;;;;;5044534;28;20434;-78
2021/01/06 04:25:23;;;;;;;;;;;6.30;81.70;;;;;;5031820;28;19905;-86
2021/01/06 04:27:49;;;;;;;;;;;6.30;81.70;;;;;;5028889;28;20415;-85
2021/01/06 04:30:23;;;;;;;;;;;6.40;81.80;;;;;;5024237;28;20350;-78
2021/01/06 04:32:49;;;;;;;;;;;6.30;81.70;;;;;;5045409;28;19915;-88
2021/01/06 04:35:14;;;;;;;;;;;6.40;81.80;;;;;;5041245;28;19999;-80
2021/01/06 04:37:40;;;;;;;;;;;6.30;81.70;;;;;;5033777;28;20016;-80
2021/01/06 04:40:06;;;;;;;;;;;6.30;81.70;;;;;;5047776;28;19920;-78
2021/01/06 04:42:32;;;;;;;;;;;6.30;81.80;;;;;;5028009;28;20372;-81
2021/01/06 04:45:04;;;;;;;;;;;6.30;81.70;;;;;;5022007;28;19958;-82
2021/01/06 04:47:33;;;;;;;;;;;6.30;81.80;;;;;;5040096;28;19913;-77
2021/01/06 04:50:12;;;;;;;;;;;6.30;81.80;;;;;;5052780;28;19909;-78
2021/01/06 04:52:38;;;;;;;;;;;6.30;81.70;;;;;;5046849;28;20277;-77
2021/01/06 04:55:22;;;;;;;;;;;6.30;81.70;;;;;;5045036;28;19917;-78
2021/01/06 04:57:50;;;;;;;;;;;6.30;81.80;;;;;;5033851;28;19913;-79
2021/01/06 05:00:23;;;;;;;;;;;6.30;81.80;;;;;;5039753;28;19905;-81
2021/01/06 05:03:07;;;;;;;;;;;6.30;81.80;;;;;;5051148;28;19908;-79
2021/01/06 05:05:39;;;;;;;;;;;6.30;81.80;;;;;;5031864;28;19924;-78
2021/01/06 05:08:11;;;;;;;;;;;6.30;81.70;;;;;;5046482;28;19920;-80
2021/01/06 05:11:00;;;;;;;;;;;6.30;81.80;;;;;;5042266;28;19916;-77
2021/01/06 05:13:30;;;;;;;;;;;6.30;81.80;;;;;;5012589;28;20032;-79
2021/01/06 05:16:02;;;;;;;;;;;6.30;81.80;;;;;;5049314;28;19908;-80
2021/01/06 05:18:28;;;;;;;;;;;6.30;81.80;;;;;;5038600;28;19909;-78
2021/01/06 05:20:54;;;;;;;;;;;6.30;81.80;;;;;;5034550;28;19913;-80
2021/01/06 05:23:26;;;;;;;;;;;6.30;81.80;;;;;;5049234;28;19996;-78
2021/01/06 05:25:53;;;;;;;;;;;6.30;81.80;;;;;;5052250;28;20403;-79
2021/01/06 05:28:20;;;;;;;;;;;6.30;81.80;;;;;;5031796;28;19909;-78
2021/01/06 05:30:50;;;;;;;;;;;6.20;81.80;;;;;;5036326;28;20004;-78
2021/01/06 05:33:18;;;;;;;;;;;6.20;81.80;;;;;;5049691;28;19908;-78
2021/01/06 05:35:47;;;;;;;;;;;6.20;81.70;;;;;;5032495;28;20348;-81
2021/01/06 05:38:13;;;;;;;;;;;6.20;81.80;;;;;;5048873;28;19920;-83
2021/01/06 05:40:39;;;;;;;;;;;6.30;81.80;;;;;;5038772;28;19913;-82
2021/01/06 05:43:08;;;;;;;;;;;6.30;81.80;;;;;;5043375;28;19908;-85
2021/01/06 05:45:38;;;;;;;;;;;6.20;81.80;;;;;;5043945;28;20232;-78
2021/01/06 05:48:06;;;;;;;;;;;6.20;81.80;;;;;;5055810;28;19916;-79
2021/01/06 05:50:34;;;;;;;;;;;6.20;81.70;;;;;;5028461;28;20024;-77
2021/01/06 05:53:18;;;;;;;;;;;6.20;81.80;;;;;;5038508;28;19995;-80
2021/01/06 05:55:45;;;;;;;;;;;6.20;81.80;;;;;;5049567;28;19912;-77
2021/01/06 05:58:16;;;;;;;;;;;6.20;81.80;;;;;;5053623;28;19912;-79
2021/01/06 06:00:44;;;;;;;;;;;6.20;81.80;;;;;;5048814;28;20019;-78
2021/01/06 06:03:10;;;;;;;;;;;6.20;81.80;;;;;;5052049;28;19915;-83
2021/01/06 06:05:54;;;;;;;;;;;6.20;81.80;;;;;;5046607;28;19921;-77
2021/01/06 06:08:41;;;;;;;;;;;6.20;81.80;;;;;;5050782;28;19939;-77
2021/01/06 06:11:10;;;;;;;;;;;6.20;81.80;;;;;;5042160;28;19952;-77
2021/01/06 06:13:39;;;;;;;;;;;6.20;81.80;;;;;;5036243;28;19909;-76
2021/01/06 06:16:04;;;;;;;;;;;6.20;82.10;;;;;;5035389;28;20008;-79
2021/01/06 06:18:38;;;;;;;;;;;6.20;81.80;;;;;;5043452;28;20342;-79
2021/01/06 06:21:42;;;;;;;;;;;6.20;81.80;;;;;;5048339;28;19951;-78
2021/01/06 06:24:26;;;;;;;;;;;6.20;81.80;;;;;;4985632;28;19967;-79
2021/01/06 06:27:01;;;;;;;;;;;6.10;81.80;;;;;;4992137;28;19917;-75
2021/01/06 06:29:44;;;;;;;;;;;6.10;81.80;;;;;;5011691;28;20357;-76
2021/01/06 06:32:10;;;;;;;;;;;6.10;81.80;;;;;;5047427;28;19909;-77
2021/01/06 06:34:36;;;;;;;;;;;6.10;81.80;;;;;;5054952;28;20341;-79
2021/01/06 06:37:08;;;;;;;;;;;6.10;81.80;;;;;;5044735;28;19909;-78
2021/01/06 06:39:40;;;;;;;;;;;6.10;81.90;;;;;;5020740;28;19999;-76
2021/01/06 06:42:24;;;;;;;;;;;6.10;82.00;;;;;;5035279;28;19909;-76
2021/01/06 06:45:01;;;;;;;;;;;6.10;81.80;;;;;;5042143;28;19908;-76
2021/01/06 06:47:45;;;;;;;;;;;6.10;81.80;;;;;;5054383;28;19912;-77
2021/01/06 06:50:11;;;;;;;;;;;6.10;81.80;;;;;;5050105;28;19919;-79
2021/01/06 06:52:46;;;;;;;;;;;6.10;81.90;;;;;;5033875;28;20546;-79
2021/01/06 06:55:31;;;;;;;;;;;6.10;81.90;;;;;;5043760;28;19908;-77
2021/01/06 06:58:04;;;;;;;;;;;6.00;81.80;;;;;;5035707;28;19909;-77
2021/01/06 07:00:30;;;;;;;;;;;6.00;81.80;;;;;;5035202;28;19909;-77
2021/01/06 07:03:03;;;;;;;;;;;6.00;81.80;;;;;;5051340;28;20372;-76
2021/01/06 07:05:56;;;;;;;;;;;6.00;81.90;;;;;;5042406;28;20356;-77
2021/01/06 07:08:25;;;;;;;;;;;6.00;81.80;;;;;;5050800;28;19974;-77
2021/01/06 07:10:56;;;;;;;;;;;6.00;81.90;;;;;;5053109;28;19959;-76
2021/01/06 07:13:22;;;;;;;;;;;6.00;81.90;;;;;;5034198;28;20012;-77
2021/01/06 07:15:49;;;;;;;;;;;5.90;81.80;;;;;;5043064;28;19909;-79
2021/01/06 07:18:24;;;;;;;;;;;6.00;81.90;;;;;;5034992;28;20384;-79
2021/01/06 07:20:58;;;;;;;;;;;5.90;81.80;;;;;;5053852;28;19951;-77
2021/01/06 07:23:25;;;;;;;;;;;5.90;81.80;;;;;;5041991;28;19909;-77
2021/01/06 07:26:02;;;;;;;;;;;5.90;81.90;;;;;;5051622;28;19909;-76
2021/01/06 07:28:28;;;;;;;;;;;5.90;81.90;;;;;;5053375;28;19913;-77
2021/01/06 07:30:54;;;;;;;;;;;5.90;81.90;;;;;;5032917;28;19920;-76
2021/01/06 07:36:05;;;;;;;;;;;5.90;81.90;;;;;;5037135;28;19912;-76
2021/01/06 07:38:32;;;;;;;;;;;5.90;81.90;;;;;;5053718;28;19958;-76
2021/01/06 07:40:58;;;;;;;;;;;5.80;81.90;;;;;;5038149;28;19971;-77
2021/01/06 07:43:26;;;;;;;;;;;5.80;81.90;;;;;;5041929;28;20443;-76
2021/01/06 07:45:51;;;;;;;;;;;5.80;81.90;;;;;;5052156;28;19912;-77
2021/01/06 07:48:17;;;;;;;;;;;5.80;81.90;;;;;;5033514;28;19917;-76
2021/01/06 07:50:47;;;;;;;;;;;5.80;81.90;;;;;;5046422;28;20329;-77
2021/01/06 07:53:14;;;;;;;;;;;5.80;82.10;;;;;;5052680;28;19917;-78
2021/01/06 07:55:42;;;;;;;;;;;5.80;81.90;;;;;;5054410;28;19909;-77
2021/01/06 07:58:17;;;;;;;;;;;5.80;81.90;;;;;;5052521;28;19935;-78
2021/01/06 08:00:44;;;;;;;;;;;5.70;81.90;;;;;;5042442;28;20367;-77
2021/01/06 08:03:36;;;;;;;;;;;5.70;81.90;;;;;;5016832;28;19912;-78
2021/01/06 08:06:03;;;;;;;;;;;5.70;81.90;;;;;;5017898;28;19967;-76
2021/01/06 08:08:30;;;;;;;;;;;5.80;81.90;;;;;;5031748;28;19913;-77
2021/01/06 08:11:06;;;;;;;;;;;5.70;81.80;;;;;;5034227;28;19909;-76
2021/01/06 08:13:33;;;;;;;;;;;5.70;81.90;;;;;;5052300;28;19909;-76
2021/01/06 08:16:05;;;;;;;;;;;5.70;81.80;;;;;;5044866;28;19971;-77
2021/01/06 08:18:42;;;;;;;;;;;5.70;81.80;;;;;;5042003;28;19904;-77
2021/01/06 08:21:11;;;;;;;;;;;5.70;81.90;;;;;;5039576;28;19931;-76
2021/01/06 08:24:07;;;;;;;;;;;5.70;82.40;;;;;;5047075;28;20006;-76
2021/01/06 08:26:34;;;;;;;;;;;5.70;81.80;;;;;;5021697;28;19919;-78
2021/01/06 08:29:20;;;;;;;;;;;5.70;81.80;;;;;;5023870;28;20317;-76
2021/01/06 08:31:47;;;;;;;;;;;5.70;81.80;;;;;;5043306;28;19916;-75
2021/01/06 08:34:20;;;;;;;;;;;5.70;81.80;;;;;;5046168;28;19912;-77
2021/01/06 08:36:52;;;;;;;;;;;5.70;81.80;;;;;;5043247;28;19954;-75
2021/01/06 08:39:18;;;;;;;;;;;5.70;81.80;;;;;;5049150;28;20633;-75
2021/01/06 08:41:46;;;;;;;;;;;5.70;81.80;;;;;;5037363;28;20361;-76
2021/01/06 08:44:30;;;;;;;;;;;5.70;81.80;;;;;;5046494;28;19915;-78
2021/01/06 08:46:57;;;;;;;;;;;5.70;81.80;;;;;;5053241;28;19912;-76
2021/01/06 08:49:28;;;;;;;;;;;5.70;81.80;;;;;;5032545;28;19909;-76
2021/01/06 08:51:54;;;;;;;;;;;5.70;81.80;;;;;;5045140;28;19979;-76
2021/01/06 08:54:28;;;;;;;;;;;5.70;81.80;;;;;;5042854;28;19927;-77
2021/01/06 08:57:02;;;;;;;;;;;5.70;82.40;;;;;;5052084;28;19913;-76
2021/01/06 08:59:33;;;;;;;;;;;5.70;81.80;;;;;;5035966;28;19936;-74
2021/01/06 09:01:59;;;;;;;;;;;5.70;81.80;;;;;;5052987;28;19913;-77
2021/01/06 09:04:35;;;;;;;;;;;5.70;81.80;;;;;;5044996;28;19909;-76
2021/01/06 09:07:03;;;;;;;;;;;5.70;81.80;;;;;;5044266;28;20015;-78
2021/01/06 09:09:43;;;;;;;;;;;5.70;81.70;;;;;;5034813;28;19924;-76
2021/01/06 09:12:27;;;;;;;;;;;5.70;81.80;;;;;;5052580;28;19909;-76
2021/01/06 09:14:56;;;;;;;;;;;5.70;81.70;;;;;;5047013;28;19916;-76
2021/01/06 09:17:41;;;;;;;;;;;5.70;81.70;;;;;;5052890;28;19905;-76
2021/01/06 09:20:15;;;;;;;;;;;5.70;81.70;;;;;;5066532;28;20007;-76
2021/01/06 09:22:42;;;;;;;;;;;5.70;81.80;;;;;;5037503;28;19916;-76
2021/01/06 09:25:08;;;;;;;;;;;5.70;81.80;;;;;;5052553;28;20262;-76
2021/01/06 09:27:33;;;;;;;;;;;5.70;81.70;;;;;;5038245;28;20018;-76
2021/01/06 09:30:00;;;;;;;;;;;5.70;81.70;;;;;;5051525;28;20046;-76
2021/01/06 09:32:28;;;;;;;;;;;5.70;81.70;;;;;;5049303;28;20020;-76
2021/01/06 09:34:57;;;;;;;;;;;5.70;81.70;;;;;;5031581;28;19909;-76
2021/01/06 09:37:28;;;;;;;;;;;5.70;81.70;;;;;;5032146;28;19909;-76
2021/01/06 09:39:58;;;;;;;;;;;5.70;82.30;;;;;;5051307;28;20265;-76
2021/01/06 09:42:24;;;;;;;;;;;5.70;81.70;;;;;;5037390;28;20087;-77
2021/01/06 09:44:50;;;;;;;;;;;5.70;81.70;;;;;;5048099;28;20325;-76
2021/01/06 09:47:22;;;;;;;;;;;5.70;81.70;;;;;;5044600;28;19913;-76
2021/01/06 09:49:53;;;;;;;;;;;5.70;81.70;;;;;;5051107;28;20471;-76
2021/01/06 09:52:31;;;;;;;;;;;5.70;81.70;;;;;;5048963;28;19935;-77
2021/01/06 09:54:58;;;;;;;;;;;5.70;81.70;;;;;;5031930;28;19953;-76
2021/01/06 09:57:24;;;;;;;;;;;5.70;81.70;;;;;;5032458;28;20000;-79
2021/01/06 09:59:51;;;;;;;;;;;5.70;81.60;;;;;;5048658;28;20361;-76
2021/01/06 10:02:23;;;;;;;;;;;5.70;81.60;;;;;;5042571;28;19905;-77
2021/01/06 10:04:50;;;;;;;;;;;5.70;81.60;;;;;;5043934;28;19909;-76
2021/01/06 10:07:35;;;;;;;;;;;5.70;81.60;;;;;;5052143;28;19913;-76
2021/01/06 10:10:09;;;;;;;;;;;5.70;81.60;;;;;;5031326;28;19967;-75
2021/01/06 10:12:53;;;;;;;;;;;5.80;81.70;;;;;;5040602;28;19939;-76
2021/01/06 10:15:33;;;;;;;;;;;5.70;81.60;;;;;;5038171;28;19915;-76
2021/01/06 10:18:16;;;;;;;;;;;5.80;81.70;;;;;;5052462;28;19908;-76
2021/01/06 10:21:06;;;;;;;;;;;5.80;81.70;;;;;;5017109;28;20008;-76
2021/01/06 10:23:35;;;;;;;;;;;5.70;81.60;;;;;;5039613;28;19955;-77
2021/01/06 10:26:13;;;;;;;;;;;5.80;81.70;;;;;;5050250;28;19909;-76
2021/01/06 10:28:43;;;;;;;;;;;5.80;81.60;;;;;;5037902;28;19913;-76
2021/01/06 10:31:18;;;;;;;;;;;5.80;81.60;;;;;;5044697;28;19909;-77
2021/01/06 10:34:05;;;;;;;;;;;5.80;81.60;;;;;;5041547;28;19963;-76
2021/01/06 10:36:34;;;;;;;;;;;5.80;81.60;;;;;;5054385;28;19945;-76
2021/01/06 10:39:00;;;;;;;;;;;5.80;81.60;;;;;;5053113;28;19909;-77
2021/01/06 10:41:33;;;;;;;;;;;5.90;81.70;;;;;;5040260;28;20254;-76
2021/01/06 10:44:00;;;;;;;;;;;5.80;81.60;;;;;;5055597;28;19909;-76
2021/01/06 10:46:52;;;;;;;;;;;5.80;81.60;;;;;;5054041;28;19909;-76
2021/01/06 10:49:17;;;;;;;;;;;5.80;81.60;;;;;;5053491;28;19920;-76
2021/01/06 10:51:59;;;;;;;;;;;5.80;81.50;;;;;;5048819;28;19909;-76
2021/01/06 10:54:43;;;;;;;;;;;5.90;81.60;;;;;;5035842;28;19921;-78
2021/01/06 10:57:14;;;;;;;;;;;5.90;81.60;;;;;;5036517;28;19909;-76
2021/01/06 10:59:41;;;;;;;;;;;5.90;81.60;;;;;;5056388;28;19935;-76
2021/01/06 11:02:26;;;;;;;;;;;5.80;81.50;;;;;;5045188;28;19909;-76
2021/01/06 11:05:11;;;;;;;;;;;5.90;81.60;;;;;;5051417;28;19908;-77
2021/01/06 11:07:40;;;;;;;;;;;5.90;81.60;;;;;;5041815;28;19913;-76
2021/01/06 11:10:05;;;;;;;;;;;5.90;81.60;;;;;;5047031;28;20280;-76
2021/01/06 11:12:50;;;;;;;;;;;5.90;81.60;;;;;;5047744;28;19935;-76
2021/01/06 11:15:22;;;;;;;;;;;5.90;81.60;;;;;;5050350;28;20376;-76
2021/01/06 11:18:01;;;;;;;;;;;5.90;81.50;;;;;;5067328;28;19913;-75
2021/01/06 11:20:30;;;;;;;;;;;6.00;81.60;;;;;;5047265;28;20233;-78
2021/01/06 11:23:15;;;;;;;;;;;6.00;81.60;;;;;;5042694;28;19905;-76
2021/01/06 11:25:48;;;;;;;;;;;6.00;81.50;;;;;;5017213;28;19916;-76
2021/01/06 11:28:23;;;;;;;;;;;6.00;81.50;;;;;;5041485;28;19917;-76
2021/01/06 11:31:07;;;;;;;;;;;6.00;81.50;;;;;;5053878;28;20349;-76
2021/01/06 11:33:33;;;;;;;;;;;6.00;81.60;;;;;;5054074;28;19909;-76
2021/01/06 11:36:05;;;;;;;;;;;6.00;81.50;;;;;;5050247;28;20350;-76
2021/01/06 11:38:37;;;;;;;;;;;6.00;81.60;;;;;;5066171;28;19913;-76
2021/01/06 11:41:03;;;;;;;;;;;6.00;81.60;;;;;;5054117;28;19909;-77
2021/01/06 11:43:28;;;;;;;;;;;6.00;81.50;;;;;;5052516;28;20258;-81
2021/01/06 11:45:54;;;;;;;;;;;6.00;81.60;;;;;;5051971;28;19912;-76
2021/01/06 11:48:37;;;;;;;;;;;6.00;81.50;;;;;;5036018;28;20280;-77
2021/01/06 11:51:22;;;;;;;;;;;6.10;81.50;;;;;;5051906;28;19954;-76
2021/01/06 11:54:00;;;;;;;;;;;6.10;81.50;;;;;;5052999;28;19921;-76
2021/01/06 11:56:30;;;;;;;;;;;6.10;81.50;;;;;;5054468;28;20280;-77
2021/01/06 11:59:07;;;;;;;;;;;6.10;81.50;;;;;;5054108;28;19908;-76
2021/01/06 12:01:36;;;;;;;;;;;6.10;81.50;;;;;;5042651;28;19916;-77
2021/01/06 12:04:04;;;;;;;;;;;6.10;81.50;;;;;;5053739;28;19911;-76
2021/01/06 12:06:37;;;;;;;;;;;6.10;81.50;;;;;;5043640;28;20007;-76
2021/01/06 12:09:17;;;;;;;;;;;6.10;81.50;;;;;;5041155;28;19913;-77
2021/01/06 12:11:42;;;;;;;;;;;6.10;81.50;;;;;;5052420;28;20020;-77
2021/01/06 12:14:21;;;;;;;;;;;6.10;81.50;;;;;;5052126;28;20361;-76
2021/01/06 12:16:51;;;;;;;;;;;6.20;81.50;;;;;;5050269;28;20349;-77
2021/01/06 12:19:23;;;;;;;;;;;6.10;81.50;;;;;;5048439;28;19909;-76
2021/01/06 12:22:07;;;;;;;;;;;6.20;81.50;;;;;;5046266;28;19909;-76
2021/01/06 12:24:33;;;;;;;;;;;6.20;81.50;;;;;;5036306;28;19952;-77
2021/01/06 12:27:04;;;;;;;;;;;6.20;81.50;;;;;;5034281;28;19967;-77
2021/01/06 12:29:53;;;;;;;;;;;6.20;81.50;;;;;;5033518;28;20368;-77
2021/01/06 12:32:38;;;;;;;;;;;6.20;81.50;;;;;;5039260;28;19909;-76
2021/01/06 12:35:23;;;;;;;;;;;6.20;81.50;;;;;;5032504;28;19967;-77
2021/01/06 12:38:15;;;;;;;;;;;6.20;81.50;;;;;;5036753;28;19908;-77
2021/01/06 12:40:56;;;;;;;;;;;6.30;81.50;;;;;;5036058;28;19909;-79
2021/01/06 12:43:26;;;;;;;;;;;6.20;81.50;;;;;;5037945;28;20337;-76
2021/01/06 12:46:00;;;;;;;;;;;6.20;81.40;;;;;;5031921;28;19935;-77
2021/01/06 12:48:28;;;;;;;;;;;6.30;81.50;;;;;;5044592;28;20004;-76
2021/01/06 12:51:04;;;;;;;;;;;6.30;81.50;;;;;;5033544;28;19999;-78
2021/01/06 12:53:36;;;;;;;;;;;6.30;81.50;;;;;;5051429;28;19917;-77
2021/01/06 12:56:04;;;;;;;;;;;6.30;81.50;;;;;;5047023;28;19916;-79
2021/01/06 12:58:35;;;;;;;;;;;6.30;81.40;;;;;;5034412;28;19949;-76
2021/01/06 13:01:04;;;;;;;;;;;6.30;81.50;;;;;;5043220;28;19909;-77
2021/01/06 13:03:29;;;;;;;;;;;6.30;81.40;;;;;;5046669;28;19912;-76
2021/01/06 13:05:58;;;;;;;;;;;6.30;81.40;;;;;;5037036;28;20244;-76
2021/01/06 13:08:35;;;;;;;;;;;6.30;81.40;;;;;;5036309;28;19920;-77
2021/01/06 13:11:13;;;;;;;;;;;6.30;81.40;;;;;;5052983;28;20357;-77
2021/01/06 13:13:40;;;;;;;;;;;6.30;81.40;;;;;;5034697;28;19987;-77
2021/01/06 13:16:22;;;;;;;;;;;6.30;81.40;;;;;;5037661;28;19905;-76
2021/01/06 13:18:51;;;;;;;;;;;6.30;81.40;;;;;;5046750;28;20361;-77
2021/01/06 13:21:22;;;;;;;;;;;6.30;81.40;;;;;;5039076;28;20047;-77
2021/01/06 13:23:48;;;;;;;;;;;6.40;81.40;;;;;;5034696;28;19935;-77
2021/01/06 13:26:16;;;;;;;;;;;6.40;81.40;;;;;;5037333;28;19913;-77
2021/01/06 13:28:58;;;;;;;;;;;6.40;81.40;;;;;;5030896;28;19916;-77
2021/01/06 13:31:33;;;;;;;;;;;6.30;81.40;;;;;;5039092;28;19919;-76
2021/01/06 13:34:13;;;;;;;;;;;6.40;81.40;;;;;;5037890;28;19913;-77
2021/01/06 13:36:52;;;;;;;;;;;6.40;81.40;;;;;;5033202;28;19956;-77
2021/01/06 13:39:24;;;;;;;;;;;6.40;81.40;;;;;;5045143;28;20376;-76
2021/01/06 13:41:49;;;;;;;;;;;6.40;81.40;;;;;;5045166;28;19909;-77
2021/01/06 13:44:15;;;;;;;;;;;6.40;81.40;;;;;;5050102;28;19909;-76
2021/01/06 13:46:52;;;;;;;;;;;6.40;81.40;;;;;;5038955;28;19913;-77
2021/01/06 13:49:41;;;;;;;;;;;6.40;81.40;;;;;;5031961;28;20369;-77
2021/01/06 13:52:25;;;;;;;;;;;6.40;81.40;;;;;;5035625;28;19909;-76
2021/01/06 13:54:54;;;;;;;;;;;6.40;81.40;;;;;;5036771;28;19912;-78
2021/01/06 13:57:28;;;;;;;;;;;6.40;81.40;;;;;;5051449;28;19932;-76
2021/01/06 14:00:10;;;;;;;;;;;6.40;81.40;;;;;;5052503;28;19999;-76
2021/01/06 14:02:45;;;;;;;;;;;6.40;81.40;;;;;;5044739;28;19916;-77
2021/01/06 14:05:12;;;;;;;;;;;6.40;81.40;;;;;;5050469;28;19909;-78
2021/01/06 14:07:47;;;;;;;;;;;6.40;81.40;;;;;;5053750;28;19954;-76
2021/01/06 14:10:19;;;;;;;;;;;6.40;81.40;;;;;;5038318;28;19913;-75
2021/01/06 14:13:02;;;;;;;;;;;6.40;81.40;;;;;;5044966;28;20253;-76
2021/01/06 14:15:45;;;;;;;;;;;6.40;81.40;;;;;;5024587;28;19935;-76
2021/01/06 14:18:29;;;;;;;;;;;6.40;81.30;;;;;;5038138;28;20349;-77
2021/01/06 14:21:04;;;;;;;;;;;6.40;81.30;;;;;;5041811;28;19912;-76
2021/01/06 14:23:42;;;;;;;;;;;6.40;81.30;;;;;;5054643;28;19908;-76
2021/01/06 14:26:28;;;;;;;;;;;6.40;81.30;;;;;;5052641;28;19912;-76
2021/01/06 14:29:12;;;;;;;;;;;6.40;81.30;;;;;;5023954;28;19917;-76
2021/01/06 14:31:39;;;;;;;;;;;6.40;81.30;;;;;;5054888;28;19909;-77
2021/01/06 14:34:24;;;;;;;;;;;6.40;81.30;;;;;;5055634;28;19908;-76
2021/01/06 14:36:56;;;;;;;;;;;6.40;81.30;;;;;;5038017;28;20006;-76
2021/01/06 14:39:21;;;;;;;;;;;6.40;81.30;;;;;;5051607;28;19909;-76
2021/01/06 14:41:56;;;;;;;;;;;6.40;81.30;;;;;;5049218;28;19904;-76
2021/01/06 14:44:48;;;;;;;;;;;6.40;81.30;;;;;;5035455;28;19908;-76
2021/01/06 14:47:26;;;;;;;;;;;6.40;81.30;;;;;;5022190;28;20322;-77
2021/01/06 14:50:15;;;;;;;;;;;6.40;81.30;;;;;;5048365;28;20346;-76
2021/01/06 14:52:50;;;;;;;;;;;6.40;81.30;;;;;;5030602;28;19917;-77
2021/01/06 14:55:24;;;;;;;;;;;6.40;81.30;;;;;;5035734;28;19916;-76
2021/01/06 14:57:56;;;;;;;;;;;6.40;81.40;;;;;;5050628;28;19916;-76
2021/01/06 15:00:21;;;;;;;;;;;6.40;81.40;;;;;;5047582;28;19915;-77